Stations météo

réclame
Mon MeteoGroup
Great Dun Fell, Grande-Bretagne (3227): Température de l'air & dewpoint: 11.02.2020 20:00:00 - 17.02.2020 20:00:00 (GMT)Great Dun Fell, Grande-Bretagne (3227): Vitesse du vent & gusts: 11.02.2020 20:00:00 - 17.02.2020 20:00:00 (GMT)Great Dun Fell, Grande-Bretagne (3227): Direction du vent: 11.02.2020 20:00:00 - 17.02.2020 20:00:00 (GMT)
Date & Time tt [°C] td [°C] ff [km/h] ff [knt] fx [km/h] fx [knt] dd
17.02.2020 20:00:00 -2,4 -2,4 78 42 102 55 W
17.02.2020 19:00:00 -1,8 -1,8 68 37 89 48 WSW
17.02.2020 18:00:00 -1,9 -1,9 74 40 102 55 W
17.02.2020 17:00:00 -0,5 -0,5 80 43 106 57 W
17.02.2020 16:00:00 0,5 0,5 87 47 107 58 W
17.02.2020 15:00:00 0,6 0,6 78 42 100 54 W
17.02.2020 14:00:00 0,6 0,6 81 44 106 57 W
17.02.2020 13:00:00 1,0 1,0 80 43 96 52 W
17.02.2020 12:00:00 1,0 1,0 91 49 104 56 W
17.02.2020 11:00:00 0,8 0,8 70 38 94 51 W
17.02.2020 10:00:00 0,5 0,5 76 41 96 52 W
17.02.2020 09:00:00 0,3 0,3 81 44 93 50 W
17.02.2020 08:00:00 0,0 -0,1 78 42 94 51 W
17.02.2020 07:00:00 -0,1 -0,3 74 40 102 55 WSW
17.02.2020 06:00:00 -0,4 -0,5 85 46 109 59 WSW
17.02.2020 05:00:00 -0,9 -1,0 89 48 119 64 WSW
17.02.2020 04:00:00 -0,6 -0,8 102 55 131 71 WSW
17.02.2020 03:00:00 -0,9 -1,0 107 58 141 76 WSW
17.02.2020 02:00:00 -0,9 -1,1 119 64 146 79 WSW
17.02.2020 01:00:00 -0,9 -1,4 120 65 156 84 WSW
17.02.2020 00:00:00 -0,8 -1,4 120 65 159 86 WSW
16.02.2020 23:00:00 -0,8 -2,1 126 68 159 86 WSW
16.02.2020 22:00:00 -1,0 -1,7 117 63 139 75 WSW
16.02.2020 21:00:00 -1,1 -1,4 91 49 113 61 WSW
16.02.2020 20:00:00 -1,2 -1,2 87 47 109 59 WSW
16.02.2020 19:00:00 -1,0 -1,0 80 43 107 58 WSW
16.02.2020 18:00:00 -1,4 -1,4 74 40 130 70 SW
16.02.2020 17:00:00 -0,9 -0,9 87 47 131 71 WSW
16.02.2020 16:00:00 0,1 0,1 104 56 135 73 WSW
16.02.2020 15:00:00 0,7 0,7 94 51 122 66 WSW
16.02.2020 14:00:00 0,4 -0,8 100 54 124 67 WSW
16.02.2020 13:00:00 0,0 -0,8 98 53 119 64 SW
16.02.2020 12:00:00 -0,3 -0,6 96 52 113 61 SW
16.02.2020 11:00:00 -0,4 -0,4 87 47 109 59 SW
16.02.2020 10:00:00 -0,5 -0,7 85 46 104 56 WSW
16.02.2020 09:00:00 -0,7 -0,7 85 46 119 64 WSW
16.02.2020 08:00:00 -0,6 -0,6 93 50 113 61 WSW
16.02.2020 07:00:00 -1,1 -1,1 93 50 119 64 WSW
16.02.2020 06:00:00 0,7 0,7 81 44 115 62 WSW
16.02.2020 05:00:00 0,7 0,7 76 41 107 58 WSW
16.02.2020 04:00:00 1,5 1,5 91 49 133 72 WSW
16.02.2020 03:00:00 3,0 3,0 109 59 141 76 WSW
16.02.2020 02:00:00 3,5 3,5 107 58 148 80 SW
16.02.2020 01:00:00 3,3 3,3 104 56 131 71 SW
16.02.2020 00:00:00 1,6 1,6 94 51 124 67 SW
15.02.2020 23:00:00 3,1 3,1 89 48 120 65 SW
15.02.2020 22:00:00 2,7 2,7 100 54 119 64 WSW
15.02.2020 21:00:00 2,7 2,7 94 51 115 62 WSW
15.02.2020 20:00:00 3,0 3,0 81 44 102 55 WSW
15.02.2020 19:00:00 2,7 2,7 83 45 100 54 WSW
15.02.2020 18:00:00 3,7 3,7 81 44 154 83 W
15.02.2020 17:00:00 5,6 5,6 124 67 148 80 SSW
15.02.2020 16:00:00 5,2 5,2 124 67 148 80 SSW
15.02.2020 15:00:00 4,9 4,9 109 59 131 71 SSW
15.02.2020 14:00:00 4,6 4,6 100 54 119 64 SW
15.02.2020 13:00:00 4,2 4,2 94 51 130 70 SW
15.02.2020 12:00:00 4,9 - 109 59 135 73 SW
15.02.2020 11:00:00 4,8 - 89 48 113 61 SSW
15.02.2020 10:00:00 3,8 - 91 49 104 56 SSW
15.02.2020 09:00:00 3,2 - 85 46 100 54 SSW
15.02.2020 08:00:00 2,0 - 63 34 78 42 SSW
15.02.2020 07:00:00 1,4 - 61 33 83 45 SSW
15.02.2020 06:00:00 0,9 - 68 37 81 44 SSW
15.02.2020 05:00:00 0,7 - 63 34 74 40 SSW
15.02.2020 04:00:00 0,9 - 59 32 72 39 SW
15.02.2020 03:00:00 1,3 - 63 34 78 42 SW
15.02.2020 02:00:00 1,4 - 57 31 74 40 SW
15.02.2020 01:00:00 2,0 - 50 27 59 32 SW
15.02.2020 00:00:00 1,4 - 37 20 55 30 SW
14.02.2020 23:00:00 1,6 - 46 25 54 29 SW
14.02.2020 22:00:00 1,2 - 48 26 61 33 WSW
14.02.2020 21:00:00 1,5 - 46 25 55 30 WSW
14.02.2020 20:00:00 1,8 - 46 25 55 30 WSW
14.02.2020 19:00:00 1,7 - 50 27 78 42 WSW
14.02.2020 18:00:00 2,8 - 61 33 76 41 SW
14.02.2020 17:00:00 3,2 - 57 31 87 47 SW
14.02.2020 16:00:00 3,4 - 72 39 87 47 SW
14.02.2020 15:00:00 2,5 - 72 39 94 51 SW
14.02.2020 14:00:00 2,1 - 81 44 98 53 SW
14.02.2020 13:00:00 2,1 - 80 43 120 65 SW
14.02.2020 12:00:00 0,0 0,0 93 50 119 64 SSW
14.02.2020 11:00:00 -0,3 -0,3 59 32 98 53 SSW
14.02.2020 10:00:00 -0,5 -0,5 91 49 106 57 SSW
14.02.2020 09:00:00 -0,8 -0,8 61 33 80 43 SSW
14.02.2020 08:00:00 -1,0 -1,0 50 27 70 38 SSW
14.02.2020 07:00:00 -0,9 -0,9 61 33 72 39 SSW
14.02.2020 06:00:00 -1,0 -1,0 52 28 67 36 SSW
14.02.2020 05:00:00 -0,9 -0,9 48 26 61 33 SSW
14.02.2020 04:00:00 -1,0 -1,0 39 21 - - SSW
14.02.2020 03:00:00 -1,0 -1,0 31 17 - - SSW
14.02.2020 02:00:00 -1,2 -1,2 21 11 - - SSW
14.02.2020 01:00:00 -1,3 -1,3 9 5 - - SE
14.02.2020 00:00:00 -1,1 -1,1 11 6 - - E
13.02.2020 23:00:00 -0,7 -0,7 21 11 - - ENE
13.02.2020 22:00:00 -0,4 -0,4 11 6 - - NE
13.02.2020 21:00:00 -0,3 -0,3 16 9 48 26 NNE
13.02.2020 20:00:00 -0,2 -0,2 42 23 50 27 NE
13.02.2020 19:00:00 -0,2 -0,2 42 23 52 28 NE
13.02.2020 18:00:00 -0,3 -0,3 39 21 65 35 NE
13.02.2020 17:00:00 -0,5 -0,5 57 31 68 37 NE
13.02.2020 16:00:00 -0,9 -0,9 46 25 63 34 NE
13.02.2020 15:00:00 -1,3 -1,3 31 17 46 25 NE
13.02.2020 14:00:00 -1,5 -1,5 26 14 - - NNE
13.02.2020 13:00:00 -2,1 -2,1 16 9 - - NNE
13.02.2020 12:00:00 -0,3 -0,3 16 9 - - WNW
13.02.2020 11:00:00 -0,6 -0,6 13 7 - - W
13.02.2020 10:00:00 -1,1 -1,1 9 5 - - SSW
13.02.2020 09:00:00 -2,8 -2,8 13 7 - - ESE
13.02.2020 08:00:00 -3,4 -3,4 29 16 48 26 ESE
13.02.2020 07:00:00 -3,1 -3,1 44 24 57 31 SE
13.02.2020 06:00:00 -3,0 -3,0 50 27 61 33 SE
13.02.2020 05:00:00 -3,2 -3,2 55 30 67 36 ESE
13.02.2020 04:00:00 -2,3 -2,3 50 27 63 34 SE
13.02.2020 03:00:00 -1,7 -1,7 48 26 67 36 SSE
13.02.2020 02:00:00 -1,8 -1,8 50 27 63 34 SSE
13.02.2020 01:00:00 -1,9 -1,9 48 26 59 32 S
13.02.2020 00:00:00 -2,2 -2,2 42 23 61 33 S
12.02.2020 23:00:00 -3,1 -3,1 34 18 48 26 S
12.02.2020 22:00:00 -2,1 -2,1 39 21 50 27 SSW
12.02.2020 21:00:00 -3,0 -3,0 29 16 - - SSW
12.02.2020 20:00:00 -3,5 -3,5 28 15 50 27 SW
12.02.2020 19:00:00 -3,7 -3,8 42 23 54 29 WSW
12.02.2020 18:00:00 -3,3 -3,4 52 28 59 32 WSW
12.02.2020 17:00:00 -3,0 -3,0 48 26 78 42 W
12.02.2020 16:00:00 -2,9 -3,6 63 34 78 42 WSW
12.02.2020 15:00:00 -3,1 -3,8 67 36 81 44 W
12.02.2020 14:00:00 -2,7 -2,8 68 37 91 49 W
12.02.2020 13:00:00 -2,9 -3,1 70 38 94 51 W
12.02.2020 12:00:00 -2,7 -2,8 59 32 76 41 W
12.02.2020 11:00:00 -3,1 -3,1 59 32 80 43 W
12.02.2020 10:00:00 -3,0 -3,1 61 33 104 56 W
12.02.2020 09:00:00 -3,3 -3,4 55 30 76 41 W
12.02.2020 08:00:00 -3,6 -3,6 63 34 80 43 W
12.02.2020 07:00:00 -3,3 -3,4 61 33 76 41 W
12.02.2020 06:00:00 -3,2 -3,3 70 38 93 50 W
12.02.2020 05:00:00 -3,2 -3,2 68 37 94 51 W
12.02.2020 04:00:00 -3,4 -3,5 78 42 100 54 W
12.02.2020 03:00:00 -3,2 -3,2 87 47 111 60 W
12.02.2020 02:00:00 -3,1 -3,1 89 48 107 58 W
12.02.2020 01:00:00 -3,2 -3,3 89 48 124 67 W
12.02.2020 00:00:00 -3,3 -3,3 89 48 115 62 W
11.02.2020 23:00:00 -3,2 -3,2 98 53 128 69 W
11.02.2020 22:00:00 -3,4 -3,5 85 46 126 68 W
11.02.2020 21:00:00 -3,3 -3,4 89 48 109 59 W
11.02.2020 20:00:00 -3,5 -3,5 91 49 131 71 W

tt = Température de l'air
td = dewpoint
ff = Vitesse du vent
fx = gusts
dd = Direction du vent

stations d'obs. à proximité